Observations for BOSCOMBE DOWN, United Kingdom (EGDM)

EGDM 240920Z 26007KT CAVOK 19/17 Q1015 NOSIG RMK BLU BLU
EGDM 240850Z 19004KT 9000 -RA FEW120 OVC140 19/16 Q1015 NOSIG RMK BLU BLU   
EGDM 240822Z 18004KT 9000 HZ FEW060 OVC180 18/16 Q1015 NOSIG RMK BLU BLU
EGDM 240750Z 18002KT 9000 HZ FEW050 OVC140 18/16 Q1014 NOSIG RMK BLU BLU
EGDM 240720Z 27002KT 9000 HZ FEW050 OVC140 18/16 Q1014 NOSIG RMK BLU BLU
EGDM 240650Z 21001KT 9000 HZ FEW050 BKN140 18/16 Q1014 NOSIG RMK BLU BLU
EGDM 240550Z 08001KT 9000 HZ FEW050 SCT150 BKN180 17/15 Q1013 RMK BLU   
EGDM 240450Z AUTO 01003KT 9999 BKN180/// 17/15 Q1013
EGDM 240350Z AUTO 01002KT 6000 HZ BKN180/// 16/15 Q1013 
EGDM 240250Z AUTO 08008KT 7000 HZ FEW050/// 16/15 Q1012 
EGDM 240150Z AUTO 08007KT 7000 HZ SCT180/// 16/14 Q1013 
EGDM 240050Z AUTO 08007KT 8000 HZ BKN180/// 16/14 Q1013 
EGDM 232350Z AUTO 09008KT 9999 FEW110/// BKN160/// 17/15 Q1013  
EGDM 232250Z AUTO 07005KT 9999 FEW080/// BKN180/// 17/14 Q1013  
EGDM 232150Z AUTO 08008KT 9999 FEW050/// BKN150/// 18/15 Q1013  
EGDM 232050Z AUTO 08009KT 9999 BKN050/// BKN150/// 19/15 Q1014  
EGDM 231950Z AUTO 08007KT 9999 SCT110/// BKN170/// 19/14 Q1013  
EGDM 231850Z AUTO 08010KT 9999 FEW110/// SCT140/// 19/14 Q1013  
EGDM 231750Z AUTO 08009KT 9999 BKN100/// 20/15 Q1013
EGDM 231650Z AUTO 08009KT 9999 OVC090/// 20/15 Q1014 RERA   
EGDM 231550Z AUTO 08006KT 9999 -RA BKN090/// 21/16 Q1014
EGDM 231520Z 08007KT CAVOK 21/15 Q1014 NOSIG RMK BLU BLU
EGDM 231450Z 08009KT CAVOK 21/15 Q1014 NOSIG RMK BLU BLU
EGDM 231420Z 08010KT CAVOK 21/15 Q1014 NOSIG RMK BLU BLU
EGDM 231350Z 08008KT CAVOK 21/15 Q1015 NOSIG RMK BLU BLU
EGDM 231320Z 10010KT CAVOK 21/15 Q1015 NOSIG RMK BLU BLU
EGDM 231250Z 09008KT CAVOK 22/14 Q1015 NOSIG RMK BLU BLU
EGDM 231220Z 08011KT CAVOK 22/14 Q1015 NOSIG RMK BLU BLU
EGDM 231150Z 09012KT CAVOK 22/15 Q1015 NOSIG RMK BLU BLU
EGDM 231120Z 10009KT CAVOK 21/14 Q1016 NOSIG RMK BLU BLU
EGDM 231050Z 09007KT CAVOK 22/15 Q1016 NOSIG RMK BLU BLU
EGDM 231020Z 08007KT CAVOK 19/14 Q1016 NOSIG RMK BLU BLU
EGDM 230950Z 08006KT CAVOK 18/14 Q1017 NOSIG RMK BLU BLU
EGDM 230920Z 08009KT CAVOK 18/14 Q1017 NOSIG RMK BLU BLU
EGDM 230850Z 08007KT CAVOK 17/13 Q1017 NOSIG RMK BLU BLU